Time;durP1;ratioP1;P1;durP2;ratioP2;P2;SDS_P1;SDS_P2;PMS_P1;PMS_P2;Temp;Humidity;BMP_temperature;BMP_pressure;BME280_temperature;BME280_humidity;BME280_pressure;Samples;Min_cycle;Max_cycle;Signal;HPM_P1;HPM_P2
2023/12/28 00:01:07;;;;;;;3.95;1.65;;;;;;;;;;5018432;28;20490;-77
2023/12/28 00:03:32;;;;;;;4.60;1.92;;;;;;;;;;5023176;28;20041;-78
2023/12/28 00:05:57;;;;;;;7.13;2.13;;;;;;;;;;5019756;28;20021;-78
2023/12/28 00:08:22;;;;;;;4.10;1.75;;;;;;;;;;5022892;28;20037;-77
2023/12/28 00:10:48;;;;;;;4.60;1.45;;;;;;;;;;5019437;28;20026;-77
2023/12/28 00:13:13;;;;;;;4.05;1.48;;;;;;;;;;5017624;28;20042;-77
2023/12/28 00:15:38;;;;;;;4.05;1.70;;;;;;;;;;5023058;28;20044;-77
2023/12/28 00:18:03;;;;;;;4.45;1.83;;;;;;;;;;5019351;28;20383;-77
2023/12/28 00:20:28;;;;;;;3.67;1.70;;;;;;;;;;5022807;28;20104;-77
2023/12/28 00:22:54;;;;;;;3.50;1.13;;;;;;;;;;5018959;28;20036;-78
2023/12/28 00:25:19;;;;;;;4.07;1.40;;;;;;;;;;5019744;28;20388;-78
2023/12/28 00:27:45;;;;;;;5.63;1.45;;;;;;;;;;5022799;28;20078;-78
2023/12/28 00:30:10;;;;;;;4.60;1.83;;;;;;;;;;5020481;28;20042;-77
2023/12/28 00:32:36;;;;;;;3.72;1.17;;;;;;;;;;5018872;28;20034;-77
2023/12/28 00:35:01;;;;;;;4.68;1.65;;;;;;;;;;5020738;28;20038;-77
2023/12/28 00:37:26;;;;;;;5.50;1.98;;;;;;;;;;5018277;28;20038;-78
2023/12/28 00:39:51;;;;;;;5.35;1.42;;;;;;;;;;5020311;28;20029;-77
2023/12/28 00:42:17;;;;;;;4.50;1.38;;;;;;;;;;5017259;28;20371;-77
2023/12/28 00:44:43;;;;;;;3.97;1.60;;;;;;;;;;5019926;28;20061;-78
2023/12/28 00:47:09;;;;;;;3.47;1.10;;;;;;;;;;5020121;28;20506;-78
2023/12/28 00:49:35;;;;;;;3.28;1.20;;;;;;;;;;5014493;28;20036;-77
2023/12/28 00:52:00;;;;;;;3.70;1.20;;;;;;;;;;5017700;28;20040;-78
2023/12/28 00:54:25;;;;;;;2.95;1.20;;;;;;;;;;5019263;28;20033;-77
2023/12/28 00:56:50;;;;;;;2.92;1.35;;;;;;;;;;5019834;28;20036;-77
2023/12/28 00:59:15;;;;;;;3.20;0.95;;;;;;;;;;5020806;28;20018;-78
2023/12/28 01:01:40;;;;;;;2.80;1.25;;;;;;;;;;5020970;28;20508;-77
2023/12/28 01:04:06;;;;;;;3.75;1.05;;;;;;;;;;5019635;28;20501;-77
2023/12/28 01:06:31;;;;;;;3.15;1.10;;;;;;;;;;5019213;28;20135;-78
2023/12/28 01:08:56;;;;;;;3.53;1.30;;;;;;;;;;5020074;28;20092;-78
2023/12/28 01:11:21;;;;;;;4.10;1.45;;;;;;;;;;5019708;28;20018;-78
2023/12/28 01:13:47;;;;;;;3.35;1.23;;;;;;;;;;5021645;28;20425;-78
2023/12/28 01:16:12;;;;;;;3.75;1.08;;;;;;;;;;5021507;28;20061;-77
2023/12/28 01:18:38;;;;;;;2.95;0.93;;;;;;;;;;5020007;28;20029;-78
2023/12/28 01:21:03;;;;;;;4.78;1.08;;;;;;;;;;5018738;28;20079;-77
2023/12/28 01:23:28;;;;;;;3.28;0.93;;;;;;;;;;5020361;28;20038;-77
2023/12/28 01:25:55;;;;;;;2.65;0.70;;;;;;;;;;5019931;28;20083;-78
2023/12/28 01:28:20;;;;;;;2.97;0.75;;;;;;;;;;5023453;28;20030;-78
2023/12/28 01:30:45;;;;;;;2.88;0.88;;;;;;;;;;5018685;28;20052;-78
2023/12/28 01:33:10;;;;;;;2.63;0.95;;;;;;;;;;5017125;28;20037;-78
2023/12/28 01:35:36;;;;;;;2.28;0.73;;;;;;;;;;5004856;28;20052;-78
2023/12/28 01:38:01;;;;;;;1.70;0.68;;;;;;;;;;5019207;28;20514;-77
2023/12/28 01:40:26;;;;;;;2.40;0.77;;;;;;;;;;5021201;28;20030;-78
2023/12/28 01:42:52;;;;;;;2.53;0.65;;;;;;;;;;5033009;22;20045;-80
2023/12/28 01:45:17;;;;;;;2.35;0.80;;;;;;;;;;5026983;28;20105;-79
2023/12/28 01:47:42;;;;;;;1.83;0.73;;;;;;;;;;5028812;28;20032;-80
2023/12/28 01:50:07;;;;;;;2.17;0.60;;;;;;;;;;5030748;28;20030;-79
2023/12/28 01:52:33;;;;;;;2.45;0.82;;;;;;;;;;5032505;28;20086;-79
2023/12/28 01:54:58;;;;;;;2.72;0.73;;;;;;;;;;5029565;28;20024;-80
2023/12/28 01:57:24;;;;;;;2.50;0.70;;;;;;;;;;5031031;28;20105;-79
2023/12/28 01:59:49;;;;;;;1.85;0.65;;;;;;;;;;5027322;28;20390;-79
2023/12/28 02:02:16;;;;;;;3.22;1.27;;;;;;;;;;5027446;28;20071;-80
2023/12/28 02:04:41;;;;;;;2.72;1.13;;;;;;;;;;5031581;28;20549;-80
2023/12/28 02:07:06;;;;;;;2.05;0.70;;;;;;;;;;5014200;28;20029;-80
2023/12/28 02:09:31;;;;;;;1.25;0.50;;;;;;;;;;5028812;28;20477;-79
2023/12/28 02:11:57;;;;;;;1.55;0.60;;;;;;;;;;5024015;28;20034;-79
2023/12/28 02:14:22;;;;;;;1.65;0.50;;;;;;;;;;5025676;28;20037;-80
2023/12/28 02:17:02;;;;;;;2.00;0.60;;;;;;;;;;5032902;28;20044;-79
2023/12/28 02:19:40;;;;;;;1.73;0.52;;;;;;;;;;5038274;28;20448;-80
2023/12/28 02:22:05;;;;;;;3.70;0.80;;;;;;;;;;5009508;28;20025;-79
2023/12/28 02:24:30;;;;;;;3.30;0.60;;;;;;;;;;5027602;28;20585;-80
2023/12/28 02:26:55;;;;;;;2.28;0.93;;;;;;;;;;5026606;28;20427;-79
2023/12/28 02:29:21;;;;;;;2.15;0.77;;;;;;;;;;5016177;28;20025;-80
2023/12/28 02:31:49;;;;;;;1.58;0.63;;;;;;;;;;5030059;28;20410;-79
2023/12/28 02:34:19;;;;;;;1.98;0.57;;;;;;;;;;5028060;28;20464;-80
2023/12/28 02:36:47;;;;;;;1.90;0.60;;;;;;;;;;5013173;28;20032;-80
2023/12/28 02:39:13;;;;;;;2.20;0.75;;;;;;;;;;5027128;28;20033;-80
2023/12/28 02:41:39;;;;;;;2.15;0.75;;;;;;;;;;5023793;28;20076;-80
2023/12/28 02:44:04;;;;;;;1.70;0.50;;;;;;;;;;5029987;28;20068;-80
2023/12/28 02:46:29;;;;;;;1.77;0.70;;;;;;;;;;5031824;28;20069;-80
2023/12/28 02:48:57;;;;;;;1.70;0.55;;;;;;;;;;5026031;28;20108;-80
2023/12/28 02:51:22;;;;;;;3.33;0.80;;;;;;;;;;5027914;28;20037;-80
2023/12/28 02:53:47;;;;;;;1.45;0.50;;;;;;;;;;5022793;28;20176;-79
2023/12/28 02:56:12;;;;;;;3.33;0.70;;;;;;;;;;5022982;28;20121;-79
2023/12/28 02:58:37;;;;;;;4.00;0.80;;;;;;;;;;5028718;28;20030;-80
2023/12/28 03:01:03;;;;;;;2.33;0.80;;;;;;;;;;5026771;28;20034;-80
2023/12/28 03:03:28;;;;;;;2.67;0.88;;;;;;;;;;5028194;28;20497;-79
2023/12/28 03:05:54;;;;;;;2.67;0.90;;;;;;;;;;5027141;28;20053;-80
2023/12/28 03:08:19;;;;;;;1.75;0.50;;;;;;;;;;5027030;28;20025;-80
2023/12/28 03:10:44;;;;;;;2.63;0.75;;;;;;;;;;5023528;28;20032;-80
2023/12/28 03:13:09;;;;;;;4.22;0.90;;;;;;;;;;5029979;28;20026;-79
2023/12/28 03:15:34;;;;;;;3.28;0.60;;;;;;;;;;5029555;28;20026;-80
2023/12/28 03:18:00;;;;;;;2.08;0.73;;;;;;;;;;5026555;28;20502;-80
2023/12/28 03:20:25;;;;;;;2.10;0.63;;;;;;;;;;5031248;28;20037;-80
2023/12/28 03:22:50;;;;;;;1.75;0.65;;;;;;;;;;5004338;28;20113;-80
2023/12/28 03:25:15;;;;;;;2.30;0.70;;;;;;;;;;5027311;28;20734;-80
2023/12/28 03:27:40;;;;;;;1.70;0.63;;;;;;;;;;5033736;28;20032;-80
2023/12/28 03:30:06;;;;;;;1.38;0.55;;;;;;;;;;5029715;28;20435;-80
2023/12/28 03:32:31;;;;;;;3.10;0.70;;;;;;;;;;5027360;28;20049;-80
2023/12/28 03:34:56;;;;;;;1.73;0.50;;;;;;;;;;5023071;28;20386;-80
2023/12/28 03:37:21;;;;;;;2.60;0.70;;;;;;;;;;5027792;28;20123;-80
2023/12/28 03:39:46;;;;;;;2.38;1.00;;;;;;;;;;5027677;28;20402;-80
2023/12/28 03:42:13;;;;;;;3.90;1.00;;;;;;;;;;5028470;28;20034;-80
2023/12/28 03:44:38;;;;;;;1.58;0.60;;;;;;;;;;5030334;28;20033;-79
2023/12/28 03:47:04;;;;;;;2.28;0.63;;;;;;;;;;5023199;28;20026;-80
2023/12/28 03:49:29;;;;;;;2.08;0.65;;;;;;;;;;5028009;28;20021;-81
2023/12/28 03:51:55;;;;;;;2.47;0.88;;;;;;;;;;5019199;28;20036;-80
2023/12/28 03:54:20;;;;;;;2.33;0.75;;;;;;;;;;5030074;28;20044;-80
2023/12/28 03:56:46;;;;;;;2.60;1.00;;;;;;;;;;5027957;28;20030;-80
2023/12/28 03:59:11;;;;;;;2.17;0.88;;;;;;;;;;5032598;28;20029;-80
2023/12/28 04:01:36;;;;;;;2.55;0.93;;;;;;;;;;5026311;28;20079;-80
2023/12/28 04:04:02;;;;;;;2.60;0.60;;;;;;;;;;5024393;28;20037;-80
2023/12/28 04:06:27;;;;;;;2.70;1.02;;;;;;;;;;5022567;28;20083;-80
2023/12/28 04:08:52;;;;;;;2.97;0.90;;;;;;;;;;5028508;28;20097;-81
2023/12/28 04:11:18;;;;;;;1.85;1.02;;;;;;;;;;5012634;28;20410;-80
2023/12/28 04:13:43;;;;;;;2.05;0.82;;;;;;;;;;5024881;28;20034;-80
2023/12/28 04:16:11;;;;;;;1.98;0.80;;;;;;;;;;5024021;28;20166;-80
2023/12/28 04:18:37;;;;;;;1.60;0.70;;;;;;;;;;5021794;28;20037;-80
2023/12/28 04:21:02;;;;;;;2.95;1.00;;;;;;;;;;5029524;28;20036;-80
2023/12/28 04:23:28;;;;;;;3.03;1.02;;;;;;;;;;5029663;28;20518;-80
2023/12/28 04:25:53;;;;;;;1.83;0.80;;;;;;;;;;5026811;28;20029;-81
2023/12/28 04:28:18;;;;;;;2.70;0.90;;;;;;;;;;5029335;28;20108;-81
2023/12/28 04:30:43;;;;;;;2.53;0.85;;;;;;;;;;5025293;28;20029;-80
2023/12/28 04:33:09;;;;;;;1.45;0.80;;;;;;;;;;5020421;28;20490;-80
2023/12/28 04:35:34;;;;;;;2.15;0.80;;;;;;;;;;5029950;28;20491;-81
2023/12/28 04:38:00;;;;;;;2.83;1.02;;;;;;;;;;5025831;28;20172;-80
2023/12/28 04:40:25;;;;;;;2.58;0.90;;;;;;;;;;5029754;28;20025;-81
2023/12/28 04:42:50;;;;;;;2.40;0.75;;;;;;;;;;5005933;28;20033;-80
2023/12/28 04:45:16;;;;;;;2.67;0.80;;;;;;;;;;5023787;28;20464;-80
2023/12/28 04:47:41;;;;;;;2.28;0.90;;;;;;;;;;5023545;28;20101;-80
2023/12/28 04:50:07;;;;;;;2.53;0.70;;;;;;;;;;5029959;28;20027;-80
2023/12/28 04:52:32;;;;;;;2.28;0.90;;;;;;;;;;5029194;28;20029;-80
2023/12/28 04:54:57;;;;;;;2.65;0.95;;;;;;;;;;5022663;28;20079;-80
2023/12/28 04:57:25;;;;;;;2.65;0.70;;;;;;;;;;5033830;28;20025;-80
2023/12/28 04:59:50;;;;;;;4.13;1.08;;;;;;;;;;5030424;28;20116;-80
2023/12/28 05:02:17;;;;;;;2.25;0.88;;;;;;;;;;5026471;28;20501;-80
2023/12/28 05:04:42;;;;;;;2.30;1.00;;;;;;;;;;5018310;28;20056;-80
2023/12/28 05:07:07;;;;;;;3.08;0.82;;;;;;;;;;5017183;28;20087;-81
2023/12/28 05:09:32;;;;;;;2.13;1.00;;;;;;;;;;5014951;28;20036;-80
2023/12/28 05:11:57;;;;;;;3.65;1.13;;;;;;;;;;5019853;28;20032;-81
2023/12/28 05:14:23;;;;;;;3.65;1.10;;;;;;;;;;5018037;28;20033;-80
2023/12/28 05:16:48;;;;;;;2.40;1.10;;;;;;;;;;5021551;28;20022;-80
2023/12/28 05:19:13;;;;;;;3.92;1.20;;;;;;;;;;5019212;28;20042;-81
2023/12/28 05:21:38;;;;;;;2.30;0.80;;;;;;;;;;5022553;28;20146;-80
2023/12/28 05:24:04;;;;;;;2.50;0.90;;;;;;;;;;5016786;28;20280;-81
2023/12/28 05:26:29;;;;;;;2.35;0.90;;;;;;;;;;5021890;28;20776;-81
2023/12/28 05:28:54;;;;;;;2.07;0.90;;;;;;;;;;5030649;28;20045;-81
2023/12/28 05:31:20;;;;;;;2.25;0.90;;;;;;;;;;5031729;28;20279;-81
2023/12/28 05:33:45;;;;;;;2.60;1.08;;;;;;;;;;5026486;28;20707;-81
2023/12/28 05:36:10;;;;;;;2.42;0.98;;;;;;;;;;5027141;28;20030;-81
2023/12/28 05:38:35;;;;;;;2.90;1.00;;;;;;;;;;5028653;28;20497;-81
2023/12/28 05:41:00;;;;;;;3.92;1.13;;;;;;;;;;5025659;28;20038;-80
2023/12/28 05:43:25;;;;;;;2.97;1.20;;;;;;;;;;5026202;28;20032;-80
2023/12/28 05:45:50;;;;;;;3.13;1.10;;;;;;;;;;5033597;28;20283;-81
2023/12/28 05:48:16;;;;;;;2.50;0.90;;;;;;;;;;5030171;28;20486;-80
2023/12/28 05:50:41;;;;;;;2.30;0.90;;;;;;;;;;5013341;28;20281;-81
2023/12/28 05:53:06;;;;;;;3.40;1.23;;;;;;;;;;5025899;28;20277;-80
2023/12/28 05:55:31;;;;;;;4.05;1.35;;;;;;;;;;5026798;28;20306;-80
2023/12/28 05:57:57;;;;;;;3.83;1.20;;;;;;;;;;5026463;28;20029;-80
2023/12/28 06:00:22;;;;;;;2.72;0.95;;;;;;;;;;5032569;28;20513;-80
2023/12/28 06:02:51;;;;;;;3.63;1.10;;;;;;;;;;5030089;28;20034;-81
2023/12/28 06:05:16;;;;;;;4.43;1.33;;;;;;;;;;5028409;28;20036;-81
2023/12/28 06:07:41;;;;;;;2.13;0.80;;;;;;;;;;5026740;28;20404;-81
2023/12/28 06:10:07;;;;;;;2.50;1.30;;;;;;;;;;5023951;28;20029;-80
2023/12/28 06:12:32;;;;;;;3.47;1.17;;;;;;;;;;5030659;28;20521;-81
2023/12/28 06:14:57;;;;;;;3.38;1.40;;;;;;;;;;5032177;28;20390;-81
2023/12/28 06:17:22;;;;;;;4.17;1.10;;;;;;;;;;5029831;28;20033;-81
2023/12/28 06:19:49;;;;;;;3.20;1.20;;;;;;;;;;5028233;28;20402;-80
2023/12/28 06:22:15;;;;;;;2.90;1.20;;;;;;;;;;5026272;28;20030;-81
2023/12/28 06:24:40;;;;;;;3.60;1.20;;;;;;;;;;5023899;28;20036;-80
2023/12/28 06:27:05;;;;;;;2.97;1.40;;;;;;;;;;5028564;28;20043;-80
2023/12/28 06:29:30;;;;;;;5.72;1.13;;;;;;;;;;5036150;28;20040;-81
2023/12/28 06:31:55;;;;;;;3.20;1.00;;;;;;;;;;5026841;28;20409;-80
2023/12/28 06:34:21;;;;;;;4.20;1.20;;;;;;;;;;5027412;28;20318;-80
2023/12/28 06:36:46;;;;;;;4.03;1.35;;;;;;;;;;5022713;28;20279;-80
2023/12/28 06:39:11;;;;;;;3.13;1.33;;;;;;;;;;5023483;28;20030;-80
2023/12/28 06:41:36;;;;;;;3.45;1.13;;;;;;;;;;5031539;28;20718;-81
2023/12/28 06:44:02;;;;;;;5.60;1.47;;;;;;;;;;5028619;28;20061;-81
2023/12/28 06:46:27;;;;;;;3.00;1.10;;;;;;;;;;5032071;28;20350;-81
2023/12/28 06:48:52;;;;;;;3.58;1.52;;;;;;;;;;5027460;28;20359;-80
2023/12/28 06:51:18;;;;;;;3.38;1.40;;;;;;;;;;5025104;28;21650;-81
2023/12/28 06:53:43;;;;;;;4.03;1.35;;;;;;;;;;5030014;28;20067;-81
2023/12/28 06:56:09;;;;;;;2.38;0.85;;;;;;;;;;5031091;28;20053;-80
2023/12/28 06:58:34;;;;;;;3.35;1.30;;;;;;;;;;5034477;28;20057;-81
2023/12/28 07:01:02;;;;;;;3.33;1.27;;;;;;;;;;5028112;28;20084;-80
2023/12/28 07:03:30;;;;;;;3.40;1.38;;;;;;;;;;5028876;28;20298;-80
2023/12/28 07:05:55;;;;;;;3.65;1.88;;;;;;;;;;5020898;28;20084;-80
2023/12/28 07:08:20;;;;;;;4.17;1.43;;;;;;;;;;5031354;28;20482;-81
2023/12/28 07:10:45;;;;;;;3.92;1.15;;;;;;;;;;5030455;28;20276;-80
2023/12/28 07:13:10;;;;;;;5.28;1.45;;;;;;;;;;5027029;28;20613;-80
2023/12/28 07:15:36;;;;;;;4.82;1.70;;;;;;;;;;5027876;28;20025;-80
2023/12/28 07:18:01;;;;;;;4.43;1.77;;;;;;;;;;5022675;28;20113;-80
2023/12/28 07:20:26;;;;;;;6.25;2.05;;;;;;;;;;5024996;28;20036;-80
2023/12/28 07:22:51;;;;;;;3.67;1.42;;;;;;;;;;5031019;28;20075;-81
2023/12/28 07:25:16;;;;;;;3.75;1.52;;;;;;;;;;5030053;28;20049;-80
2023/12/28 07:27:41;;;;;;;3.88;1.40;;;;;;;;;;5033638;28;20036;-80
2023/12/28 07:30:07;;;;;;;4.60;1.38;;;;;;;;;;5024681;28;20042;-80
2023/12/28 07:32:33;;;;;;;4.25;1.63;;;;;;;;;;5007339;28;20076;-80
2023/12/28 07:34:58;;;;;;;3.10;1.40;;;;;;;;;;5011641;28;20109;-80
2023/12/28 07:37:24;;;;;;;3.85;1.40;;;;;;;;;;5030110;28;20103;-81
2023/12/28 07:39:49;;;;;;;3.20;1.52;;;;;;;;;;5030078;28;20031;-80
2023/12/28 07:42:15;;;;;;;4.20;1.63;;;;;;;;;;5026077;28;20033;-80
2023/12/28 07:44:40;;;;;;;3.22;1.38;;;;;;;;;;5025771;28;20037;-80
2023/12/28 07:47:05;;;;;;;3.72;1.40;;;;;;;;;;5034974;23;20026;-77
2023/12/28 07:49:30;;;;;;;3.60;1.50;;;;;;;;;;5020961;28;20513;-77
2023/12/28 07:51:56;;;;;;;4.05;1.73;;;;;;;;;;5024169;28;20041;-77
2023/12/28 07:54:21;;;;;;;3.38;1.48;;;;;;;;;;5019456;28;20030;-77
2023/12/28 07:56:46;;;;;;;3.13;1.10;;;;;;;;;;5022764;28;20040;-75
2023/12/28 07:59:11;;;;;;;3.42;1.48;;;;;;;;;;5024393;28;20121;-77
2023/12/28 08:01:36;;;;;;;3.75;1.67;;;;;;;;;;5023495;28;20037;-77
2023/12/28 08:04:02;;;;;;;2.72;1.20;;;;;;;;;;5015542;28;20075;-77
2023/12/28 08:06:29;;;;;;;9.00;1.67;;;;;;;;;;5022067;28;20501;-77
2023/12/28 08:08:54;;;;;;;2.80;1.33;;;;;;;;;;5022598;28;20039;-77
2023/12/28 08:11:19;;;;;;;3.17;1.15;;;;;;;;;;5021741;28;20117;-77
2023/12/28 08:13:44;;;;;;;3.40;1.30;;;;;;;;;;5022996;28;20387;-76
2023/12/28 08:16:09;;;;;;;2.88;0.98;;;;;;;;;;5019369;28;20280;-77
2023/12/28 08:18:35;;;;;;;3.72;1.35;;;;;;;;;;5021388;28;20034;-77
2023/12/28 08:21:00;;;;;;;3.58;1.50;;;;;;;;;;5022407;28;20026;-74
2023/12/28 08:23:25;;;;;;;3.47;1.70;;;;;;;;;;5019300;28;20046;-77
2023/12/28 08:25:50;;;;;;;3.10;1.25;;;;;;;;;;5021044;28;20080;-77
2023/12/28 08:28:16;;;;;;;4.80;1.50;;;;;;;;;;5025332;28;20479;-77
2023/12/28 08:30:42;;;;;;;4.68;1.52;;;;;;;;;;5020494;28;20331;-77
2023/12/28 08:33:07;;;;;;;5.00;1.38;;;;;;;;;;5021530;28;20037;-77
2023/12/28 08:35:32;;;;;;;3.22;1.20;;;;;;;;;;5021800;28;20108;-77
2023/12/28 08:37:57;;;;;;;4.78;1.52;;;;;;;;;;5021723;28;20271;-77
2023/12/28 08:40:22;;;;;;;3.63;1.57;;;;;;;;;;5022097;28;20026;-77
2023/12/28 08:42:47;;;;;;;4.00;1.80;;;;;;;;;;5021372;28;20291;-77
2023/12/28 08:45:13;;;;;;;3.37;1.57;;;;;;;;;;5019991;28;20284;-76
2023/12/28 08:47:38;;;;;;;3.97;1.60;;;;;;;;;;5020620;28;20287;-77
2023/12/28 08:50:03;;;;;;;3.72;1.73;;;;;;;;;;5021461;28;20033;-75
2023/12/28 08:52:29;;;;;;;3.92;1.52;;;;;;;;;;5021037;28;20058;-77
2023/12/28 08:54:55;;;;;;;3.85;1.10;;;;;;;;;;5021479;28;20061;-77
2023/12/28 08:57:20;;;;;;;3.90;1.58;;;;;;;;;;5018244;28;20080;-77
2023/12/28 08:59:45;;;;;;;2.45;1.20;;;;;;;;;;5023203;28;20103;-77
2023/12/28 09:02:10;;;;;;;3.78;1.38;;;;;;;;;;5019697;28;20041;-78
2023/12/28 09:04:36;;;;;;;3.63;1.23;;;;;;;;;;5023175;28;20033;-77
2023/12/28 09:07:02;;;;;;;4.93;1.88;;;;;;;;;;5020807;28;20105;-73
2023/12/28 09:09:27;;;;;;;4.72;1.70;;;;;;;;;;5022708;28;20034;-77
2023/12/28 09:11:52;;;;;;;4.15;1.48;;;;;;;;;;5020090;28;20026;-77
2023/12/28 09:14:18;;;;;;;3.13;1.40;;;;;;;;;;5019803;28;20034;-76
2023/12/28 09:16:44;;;;;;;3.75;1.83;;;;;;;;;;5020027;28;20075;-75
2023/12/28 09:19:09;;;;;;;4.25;1.65;;;;;;;;;;5018707;28;20029;-76
2023/12/28 09:21:34;;;;;;;3.10;1.37;;;;;;;;;;5023047;28;20417;-77
2023/12/28 09:24:00;;;;;;;3.90;1.55;;;;;;;;;;5019880;28;20430;-77
2023/12/28 09:26:25;;;;;;;3.10;1.10;;;;;;;;;;5019614;28;20549;-77
2023/12/28 09:28:50;;;;;;;7.65;1.33;;;;;;;;;;5038565;28;20355;-77
2023/12/28 09:31:16;;;;;;;2.97;1.45;;;;;;;;;;5019513;28;20040;-76
2023/12/28 09:33:41;;;;;;;4.05;1.50;;;;;;;;;;5023142;28;20037;-77
2023/12/28 09:36:07;;;;;;;3.42;1.48;;;;;;;;;;5019784;28;20041;-77
2023/12/28 09:38:33;;;;;;;3.90;1.45;;;;;;;;;;5018812;28;20099;-76
2023/12/28 09:40:58;;;;;;;7.00;1.70;;;;;;;;;;5015899;28;20033;-77
2023/12/28 09:43:26;;;;;;;3.88;1.30;;;;;;;;;;5018568;28;20025;-77
2023/12/28 09:45:52;;;;;;;3.08;1.50;;;;;;;;;;5020061;28;20059;-77
2023/12/28 09:48:18;;;;;;;4.15;1.50;;;;;;;;;;5021042;28;20045;-77
2023/12/28 09:50:54;;;;;;;4.45;1.58;;;;;;;;;;5022885;28;20080;-77
2023/12/28 09:53:20;;;;;;;5.22;1.42;;;;;;;;;;5019071;28;20062;-77
2023/12/28 09:55:45;;;;;;;3.67;1.33;;;;;;;;;;5021824;28;20520;-77
2023/12/28 09:58:11;;;;;;;3.17;1.40;;;;;;;;;;5018976;28;20045;-77
2023/12/28 10:00:37;;;;;;;3.75;1.70;;;;;;;;;;5022271;28;20041;-77
2023/12/28 10:03:03;;;;;;;3.83;1.45;;;;;;;;;;5019703;28;20038;-76
2023/12/28 10:05:28;;;;;;;4.45;1.30;;;;;;;;;;5020979;28;20436;-76
2023/12/28 10:07:55;;;;;;;2.72;1.10;;;;;;;;;;5017893;28;20029;-77
2023/12/28 10:10:22;;;;;;;2.92;1.35;;;;;;;;;;5021079;28;20391;-77
2023/12/28 10:12:47;;;;;;;3.80;1.50;;;;;;;;;;5026084;28;20076;-77
2023/12/28 10:15:12;;;;;;;4.50;1.40;;;;;;;;;;5024267;28;20579;-76
2023/12/28 10:17:37;;;;;;;5.03;1.60;;;;;;;;;;5026323;28;20034;-77
2023/12/28 10:20:09;;;;;;;3.00;1.40;;;;;;;;;;5022675;28;20058;-76
2023/12/28 10:22:34;;;;;;;4.22;1.40;;;;;;;;;;5020378;28;20107;-77
2023/12/28 10:24:59;;;;;;;3.33;1.70;;;;;;;;;;5024667;28;20041;-77
2023/12/28 10:27:28;;;;;;;3.85;1.30;;;;;;;;;;5004850;28;20026;-77
2023/12/28 10:29:56;;;;;;;4.10;1.90;;;;;;;;;;5025980;28;20064;-77
2023/12/28 10:32:23;;;;;;;3.45;1.70;;;;;;;;;;5024099;28;20026;-77
2023/12/28 10:34:48;;;;;;;3.20;1.40;;;;;;;;;;5024430;28;20065;-77
2023/12/28 10:37:14;;;;;;;4.55;1.77;;;;;;;;;;5022106;28;20044;-77
2023/12/28 10:39:41;;;;;;;3.97;1.70;;;;;;;;;;5024924;28;20049;-77
2023/12/28 10:42:08;;;;;;;2.92;1.27;;;;;;;;;;5021380;28;20091;-76
2023/12/28 10:44:35;;;;;;;3.58;1.40;;;;;;;;;;5023821;28;20041;-77
2023/12/28 10:47:01;;;;;;;3.95;1.58;;;;;;;;;;5022488;28;20079;-77
2023/12/28 10:49:26;;;;;;;3.20;1.50;;;;;;;;;;5022880;28;20109;-77
2023/12/28 10:51:52;;;;;;;3.65;1.45;;;;;;;;;;5024276;28;20121;-77
2023/12/28 10:54:38;;;;;;;5.10;2.03;;;;;;;;;;5021986;28;20491;-77
2023/12/28 10:57:06;;;;;;;2.72;1.33;;;;;;;;;;5022469;28;20037;-74
2023/12/28 11:00:00;;;;;;;3.10;1.48;;;;;;;;;;5024292;28;20041;-77
2023/12/28 11:02:27;;;;;;;3.28;1.35;;;;;;;;;;5024222;28;20041;-77
2023/12/28 11:04:53;;;;;;;3.65;1.55;;;;;;;;;;5018851;28;20048;-75
2023/12/28 11:07:20;;;;;;;2.78;1.35;;;;;;;;;;5021778;28;20026;-77
2023/12/28 11:09:46;;;;;;;2.72;1.23;;;;;;;;;;5024208;28;20116;-77
2023/12/28 11:12:11;;;;;;;4.30;1.23;;;;;;;;;;5021633;28;20058;-77
2023/12/28 11:14:40;;;;;;;3.58;1.25;;;;;;;;;;5025540;28;20029;-76
2023/12/28 11:17:06;;;;;;;3.65;1.50;;;;;;;;;;5021275;28;20049;-77
2023/12/28 11:19:32;;;;;;;3.30;1.50;;;;;;;;;;5018001;28;20030;-76
2023/12/28 11:21:59;;;;;;;3.05;1.35;;;;;;;;;;5022897;28;20295;-77
2023/12/28 11:24:26;;;;;;;4.75;1.83;;;;;;;;;;5022181;28;20037;-77
2023/12/28 11:26:54;;;;;;;4.95;1.42;;;;;;;;;;5021594;28;20029;-77
2023/12/28 11:29:20;;;;;;;3.95;1.55;;;;;;;;;;5027630;28;20116;-79
2023/12/28 11:31:50;;;;;;;3.88;1.30;;;;;;;;;;5021567;28;20112;-78
2023/12/28 11:34:17;;;;;;;3.20;1.45;;;;;;;;;;5022488;28;20502;-78
2023/12/28 11:36:50;;;;;;;4.22;1.77;;;;;;;;;;5024139;28;20406;-78
2023/12/28 11:39:20;;;;;;;3.40;1.60;;;;;;;;;;5020905;28;20057;-78
2023/12/28 11:41:45;;;;;;;3.08;1.17;;;;;;;;;;5022580;28;20449;-78
2023/12/28 11:44:10;;;;;;;5.45;1.48;;;;;;;;;;5021052;28;20034;-78
2023/12/28 11:46:39;;;;;;;3.47;1.60;;;;;;;;;;5020977;28;20038;-77
2023/12/28 11:49:07;;;;;;;3.33;1.52;;;;;;;;;;5022535;28;20048;-79
2023/12/28 11:51:37;;;;;;;4.13;1.95;;;;;;;;;;5020247;28;20443;-78
2023/12/28 11:54:03;;;;;;;3.25;1.50;;;;;;;;;;5021968;28;20406;-77
2023/12/28 11:56:28;;;;;;;3.13;1.30;;;;;;;;;;5022011;28;20044;-78
2023/12/28 11:58:54;;;;;;;3.22;1.52;;;;;;;;;;5022693;28;20041;-78
2023/12/28 12:01:19;;;;;;;4.80;1.85;;;;;;;;;;5021491;28;20029;-78
2023/12/28 12:03:44;;;;;;;4.25;1.70;;;;;;;;;;5022078;28;20037;-77
2023/12/28 12:06:09;;;;;;;3.35;1.23;;;;;;;;;;5020432;28;20092;-78
2023/12/28 12:08:35;;;;;;;3.78;1.42;;;;;;;;;;5023647;28;20119;-78
2023/12/28 12:11:07;;;;;;;4.22;1.73;;;;;;;;;;5023181;28;20028;-78
2023/12/28 12:13:32;;;;;;;4.00;1.70;;;;;;;;;;5016574;28;20033;-77
2023/12/28 12:15:57;;;;;;;4.13;1.33;;;;;;;;;;5022711;28;20039;-78
2023/12/28 12:18:23;;;;;;;2.85;1.27;;;;;;;;;;5002721;28;20120;-78
2023/12/28 12:20:48;;;;;;;4.50;1.60;;;;;;;;;;5023706;28;20064;-78
2023/12/28 12:23:14;;;;;;;3.70;1.55;;;;;;;;;;5022600;28;20038;-78
2023/12/28 12:25:40;;;;;;;2.67;1.15;;;;;;;;;;5023657;28;20034;-78
2023/12/28 12:28:05;;;;;;;3.45;1.40;;;;;;;;;;5019575;28;20048;-79
2023/12/28 12:30:31;;;;;;;4.85;1.88;;;;;;;;;;5019998;28;20030;-78
2023/12/28 12:32:56;;;;;;;3.47;1.40;;;;;;;;;;5023477;28;20104;-78
2023/12/28 12:35:21;;;;;;;4.40;1.33;;;;;;;;;;5020471;28;20530;-78
2023/12/28 12:37:49;;;;;;;3.50;1.42;;;;;;;;;;5021452;28;20462;-78
2023/12/28 12:40:15;;;;;;;3.58;1.40;;;;;;;;;;5020276;28;20026;-78
2023/12/28 12:42:42;;;;;;;4.60;1.55;;;;;;;;;;5016465;28;20380;-78
2023/12/28 12:45:07;;;;;;;3.42;1.58;;;;;;;;;;5021435;28;20124;-77
2023/12/28 12:47:34;;;;;;;2.67;1.20;;;;;;;;;;5021309;28;20156;-75
2023/12/28 12:49:59;;;;;;;3.13;1.20;;;;;;;;;;5021927;28;20175;-77
2023/12/28 12:52:25;;;;;;;5.00;1.58;;;;;;;;;;5021834;28;20125;-78
2023/12/28 12:54:54;;;;;;;4.32;1.73;;;;;;;;;;5020272;28;20177;-76
2023/12/28 12:57:19;;;;;;;3.53;1.52;;;;;;;;;;5019021;28;20418;-77
2023/12/28 12:59:45;;;;;;;3.00;1.48;;;;;;;;;;5022663;28;20033;-77
2023/12/28 13:02:10;;;;;;;3.55;1.65;;;;;;;;;;5020668;28;20479;-77
2023/12/28 13:04:37;;;;;;;2.67;1.20;;;;;;;;;;5023017;28;20052;-77
2023/12/28 13:07:03;;;;;;;3.78;1.40;;;;;;;;;;5020549;28;20084;-76
2023/12/28 13:09:28;;;;;;;9.10;1.20;;;;;;;;;;5019747;28;20441;-76
2023/12/28 13:11:54;;;;;;;3.80;1.40;;;;;;;;;;5023393;28;20080;-77
2023/12/28 13:14:20;;;;;;;2.40;0.98;;;;;;;;;;5019815;28;20312;-77
2023/12/28 13:16:48;;;;;;;2.58;1.08;;;;;;;;;;5022552;28;20091;-77
2023/12/28 13:19:13;;;;;;;2.78;1.20;;;;;;;;;;5017368;28;20029;-77
2023/12/28 13:21:38;;;;;;;3.05;1.17;;;;;;;;;;5019629;28;20538;-77
2023/12/28 13:24:03;;;;;;;3.70;1.77;;;;;;;;;;5019922;28;20075;-77
2023/12/28 13:26:29;;;;;;;2.42;1.23;;;;;;;;;;5018490;28;20033;-76
2023/12/28 13:28:54;;;;;;;3.08;1.30;;;;;;;;;;5019960;28;20117;-77
2023/12/28 13:31:19;;;;;;;3.75;1.40;;;;;;;;;;5020308;28;20034;-77
2023/12/28 13:33:44;;;;;;;3.00;1.20;;;;;;;;;;5025073;28;20030;-77
2023/12/28 13:36:09;;;;;;;2.65;1.10;;;;;;;;;;5019965;28;20061;-77
2023/12/28 13:38:34;;;;;;;3.80;1.20;;;;;;;;;;5020139;28;20483;-77
2023/12/28 13:41:00;;;;;;;3.35;1.25;;;;;;;;;;5022671;28;20284;-78
2023/12/28 13:43:25;;;;;;;2.15;1.05;;;;;;;;;;5020027;28;20509;-78
2023/12/28 13:45:50;;;;;;;3.08;1.10;;;;;;;;;;5024308;28;20525;-78
2023/12/28 13:48:15;;;;;;;3.45;1.48;;;;;;;;;;5036572;22;20046;-82
2023/12/28 13:50:41;;;;;;;4.22;1.02;;;;;;;;;;5004714;28;20035;-81
2023/12/28 13:53:08;;;;;;;2.88;1.17;;;;;;;;;;5019979;28;20033;-81
2023/12/28 13:55:33;;;;;;;3.72;1.00;;;;;;;;;;5005589;28;20034;-81
2023/12/28 13:57:58;;;;;;;1.92;1.15;;;;;;;;;;5006351;28;20036;-82
2023/12/28 14:00:23;;;;;;;2.95;0.98;;;;;;;;;;5005644;28;20026;-81
2023/12/28 14:02:48;;;;;;;2.35;0.88;;;;;;;;;;5004769;28;20045;-81
2023/12/28 14:05:14;;;;;;;1.63;0.90;;;;;;;;;;5002559;28;20056;-81
2023/12/28 14:07:39;;;;;;;3.70;0.90;;;;;;;;;;5003805;28;20105;-81
2023/12/28 14:10:04;;;;;;;2.83;0.85;;;;;;;;;;5003568;28;20091;-81
2023/12/28 14:12:29;;;;;;;2.42;1.10;;;;;;;;;;5005853;28;20030;-81
2023/12/28 14:14:55;;;;;;;4.35;1.27;;;;;;;;;;5007591;28;20467;-81
2023/12/28 14:17:21;;;;;;;2.05;1.00;;;;;;;;;;5002250;28;20034;-82
2023/12/28 14:19:46;;;;;;;3.03;1.02;;;;;;;;;;5003096;28;20642;-81
2023/12/28 14:22:12;;;;;;;2.20;0.80;;;;;;;;;;5005927;28;20026;-82
2023/12/28 14:24:38;;;;;;;2.50;1.10;;;;;;;;;;5005215;28;20018;-82
2023/12/28 14:27:03;;;;;;;3.80;1.42;;;;;;;;;;5006210;28;20037;-81
2023/12/28 14:29:29;;;;;;;2.03;0.80;;;;;;;;;;5004686;28;20034;-81
2023/12/28 14:31:54;;;;;;;2.75;0.95;;;;;;;;;;5005561;28;20411;-81
2023/12/28 14:34:19;;;;;;;4.28;1.30;;;;;;;;;;5004708;28;20033;-81